Time,TemperatureF,DewpointF,PressureIn,WindDirection,WindDirectionDegrees,WindSpeedMPH,WindSpeedGustMPH,Humidity,HourlyPrecipIn,Conditions,Clouds,dailyrainin,SolarRadiationWatts/m^2,SoftwareType,DateUTC
2013-08-02 00:01:00,64.0,63.0,-100.00,East,97,0.0,2.0,97,0.01,,,0.31,0.000000,,2013-08-02 04:01:00,
2013-08-02 00:02:00,64.0,63.0,-100.00,East,97,0.0,2.0,97,0.01,,,0.31,0.000000,,2013-08-02 04:02:00,
2013-08-02 00:10:00,64.0,63.0,-100.00,ENE,74,0.0,0.0,97,0.00,,,0.31,0.000000,,2013-08-02 04:10:00,
2013-08-02 00:43:00,64.0,63.0,-100.00,ENE,74,0.0,0.0,97,0.00,,,0.31,0.000000,,2013-08-02 04:43:00,
2013-08-02 00:53:00,64.0,63.0,-100.00,ENE,74,0.0,0.0,97,0.00,,,0.31,0.000000,,2013-08-02 04:53:00,
2013-08-02 01:02:00,64.0,63.0,-100.00,ENE,74,0.0,0.0,97,0.00,,,0.31,0.000000,,2013-08-02 05:02:00,
2013-08-02 01:10:00,64.0,63.0,-100.00,ENE,70,0.0,0.0,97,0.00,,,0.31,0.000000,,2013-08-02 05:10:00,
2013-08-02 01:32:00,64.0,63.0,-100.00,ENE,70,0.0,0.0,97,0.00,,,0.31,0.000000,,2013-08-02 05:32:00,
2013-08-02 01:43:00,64.0,63.0,-100.00,ENE,70,0.0,0.0,97,0.00,,,0.31,0.000000,,2013-08-02 05:43:00,
2013-08-02 01:53:00,64.0,63.0,-100.00,ENE,70,0.0,0.0,97,0.00,,,0.31,0.000000,,2013-08-02 05:53:00,
2013-08-02 02:02:00,64.0,63.0,-100.00,ENE,70,0.0,0.0,97,0.00,,,0.31,0.000000,,2013-08-02 06:02:00,
2013-08-02 02:10:00,63.0,62.0,-100.00,East,82,0.0,4.0,97,0.00,,,0.31,0.000000,,2013-08-02 06:10:00,
2013-08-02 02:43:00,63.0,62.0,-100.00,East,82,0.0,4.0,97,0.00,,,0.31,0.000000,,2013-08-02 06:43:00,
2013-08-02 02:52:00,63.0,62.0,-100.00,East,82,0.0,4.0,97,0.00,,,0.31,0.000000,,2013-08-02 06:52:00,
2013-08-02 03:02:00,63.0,62.0,-100.00,East,82,0.0,4.0,97,0.00,,,0.31,0.000000,,2013-08-02 07:02:00,
2013-08-02 03:10:00,63.0,62.0,-100.00,East,83,0.0,0.0,97,0.00,,,0.31,0.000000,,2013-08-02 07:10:00,
2013-08-02 03:44:00,63.0,62.0,-100.00,East,83,0.0,0.0,97,0.00,,,0.31,0.000000,,2013-08-02 07:44:00,
2013-08-02 03:53:00,63.0,62.0,-100.00,East,83,0.0,0.0,97,0.00,,,0.31,0.000000,,2013-08-02 07:53:00,
2013-08-02 04:02:00,63.0,62.0,-100.00,East,83,0.0,0.0,97,0.00,,,0.31,0.000000,,2013-08-02 08:02:00,
2013-08-02 04:10:00,63.0,62.0,-100.00,NE,37,1.0,2.0,97,0.00,,,0.31,0.000000,,2013-08-02 08:10:00,
2013-08-02 04:43:00,63.0,62.0,-100.00,NE,37,1.0,2.0,97,0.00,,,0.31,0.000000,,2013-08-02 08:43:00,
2013-08-02 04:54:00,63.0,62.0,-100.00,NE,37,1.0,2.0,97,0.00,,,0.31,0.000000,,2013-08-02 08:54:00,
2013-08-02 05:02:00,63.0,62.0,-100.00,NE,37,1.0,2.0,97,0.00,,,0.31,0.000000,,2013-08-02 09:02:00,
2013-08-02 05:10:00,63.0,62.0,-100.00,NW,323,1.0,3.0,97,0.03,,,0.34,0.000000,,2013-08-02 09:10:00,
2013-08-02 05:44:00,63.0,62.0,-100.00,NW,323,1.0,3.0,97,0.03,,,0.34,0.000000,,2013-08-02 09:44:00,
2013-08-02 05:53:00,63.0,62.0,-100.00,NW,323,1.0,3.0,97,0.03,,,0.34,0.000000,,2013-08-02 09:53:00,
2013-08-02 06:03:00,63.0,62.0,-100.00,NW,323,1.0,3.0,97,0.03,,,0.34,0.000000,,2013-08-02 10:03:00,
2013-08-02 06:10:00,63.0,62.0,-100.00,NNW,330,0.0,1.0,97,0.01,,,0.35,0.000000,,2013-08-02 10:10:00,
2013-08-02 06:43:00,63.0,62.0,-100.00,NNW,330,0.0,1.0,97,0.01,,,0.35,0.000000,,2013-08-02 10:43:00,
2013-08-02 06:52:00,63.0,62.0,-100.00,NNW,330,0.0,1.0,97,0.01,,,0.35,0.000000,,2013-08-02 10:52:00,
2013-08-02 07:02:00,63.0,62.0,-100.00,NNW,330,0.0,1.0,97,0.01,,,0.35,0.000000,,2013-08-02 11:02:00,
2013-08-02 07:10:00,63.0,62.0,-100.00,East,89,1.0,3.0,97,0.00,,,0.35,16.000000,,2013-08-02 11:10:00,
2013-08-02 07:43:00,63.0,62.0,-100.00,East,89,1.0,3.0,97,0.00,,,0.35,16.000000,,2013-08-02 11:43:00,
2013-08-02 07:52:00,63.0,62.0,-100.00,East,89,1.0,3.0,97,0.00,,,0.35,16.000000,,2013-08-02 11:52:00,
2013-08-02 08:02:00,63.0,62.0,-100.00,East,89,1.0,3.0,97,0.00,,,0.35,16.000000,,2013-08-02 12:02:00,
2013-08-02 08:10:00,65.0,64.0,-100.00,SW,233,2.0,4.0,97,0.00,,,0.35,70.000000,,2013-08-02 12:10:00,
2013-08-02 08:43:00,65.0,64.0,-100.00,SW,233,2.0,4.0,97,0.00,,,0.35,70.000000,,2013-08-02 12:43:00,
2013-08-02 08:52:00,65.0,64.0,-100.00,SW,233,2.0,4.0,97,0.00,,,0.35,70.000000,,2013-08-02 12:52:00,
2013-08-02 09:03:00,65.0,64.0,-100.00,SW,233,2.0,4.0,97,0.00,,,0.35,70.000000,,2013-08-02 13:03:00,
2013-08-02 09:10:00,73.0,68.0,-100.00,SE,142,2.0,7.0,84,0.00,,,0.35,232.000000,,2013-08-02 13:10:00,
2013-08-02 09:43:00,73.0,68.0,-100.00,SE,142,2.0,7.0,84,0.00,,,0.35,232.000000,,2013-08-02 13:43:00,
2013-08-02 09:52:00,73.0,68.0,-100.00,SE,142,2.0,7.0,84,0.00,,,0.35,232.000000,,2013-08-02 13:52:00,
2013-08-02 10:02:00,73.0,68.0,-100.00,SE,142,2.0,7.0,84,0.00,,,0.35,232.000000,,2013-08-02 14:02:00,
2013-08-02 10:10:00,74.0,63.0,-100.00,WSW,237,2.0,6.0,69,0.00,,,0.35,479.000000,,2013-08-02 14:10:00,
2013-08-02 10:43:00,74.0,63.0,-100.00,WSW,237,2.0,6.0,69,0.00,,,0.35,479.000000,,2013-08-02 14:43:00,
2013-08-02 10:53:00,74.0,63.0,-100.00,WSW,237,2.0,6.0,69,0.00,,,0.35,479.000000,,2013-08-02 14:53:00,
2013-08-02 11:03:00,74.0,63.0,-100.00,WSW,237,2.0,6.0,69,0.00,,,0.35,479.000000,,2013-08-02 15:03:00,
2013-08-02 11:10:00,77.0,63.0,-100.00,SW,234,3.0,8.0,61,0.00,,,0.35,600.000000,,2013-08-02 15:10:00,
2013-08-02 11:32:00,77.0,63.0,-100.00,SW,234,3.0,8.0,61,0.00,,,0.35,600.000000,,2013-08-02 15:32:00,
2013-08-02 11:43:00,77.0,63.0,-100.00,SW,234,3.0,8.0,61,0.00,,,0.35,600.000000,,2013-08-02 15:43:00,
2013-08-02 11:53:00,77.0,63.0,-100.00,SW,234,3.0,8.0,61,0.00,,,0.35,600.000000,,2013-08-02 15:53:00,
2013-08-02 12:02:00,77.0,63.0,-100.00,SW,234,3.0,8.0,61,0.00,,,0.35,600.000000,,2013-08-02 16:02:00,
2013-08-02 12:10:00,78.0,61.0,-100.00,SW,226,3.0,9.0,56,0.00,,,-99.99,707.000000,,2013-08-02 16:10:00,
2013-08-02 12:32:00,78.0,61.0,-100.00,SW,226,3.0,9.0,56,0.00,,,-99.99,707.000000,,2013-08-02 16:32:00,
2013-08-02 12:43:00,78.0,61.0,-100.00,SW,226,3.0,9.0,56,0.00,,,-99.99,707.000000,,2013-08-02 16:43:00,
2013-08-02 12:53:00,78.0,61.0,-100.00,SW,226,3.0,9.0,56,0.00,,,-99.99,707.000000,,2013-08-02 16:53:00,
2013-08-02 13:02:00,78.0,61.0,-100.00,SW,226,3.0,9.0,56,0.00,,,-99.99,707.000000,,2013-08-02 17:02:00,
2013-08-02 13:52:00,65.0,61.0,-100.00,ENE,78,2.0,15.0,88,0.17,,,0.52,242.000000,,2013-08-02 17:52:00,
2013-08-02 15:10:00,77.0,55.0,-100.00,WNW,286,3.0,14.0,47,0.00,,,0.52,602.000000,,2013-08-02 19:10:00,
2013-08-02 15:43:00,77.0,55.0,-100.00,WNW,286,3.0,14.0,47,0.00,,,0.52,602.000000,,2013-08-02 19:43:00,
2013-08-02 15:52:00,77.0,55.0,-100.00,WNW,286,3.0,14.0,47,0.00,,,0.52,602.000000,,2013-08-02 19:52:00,
2013-08-02 16:02:00,77.0,55.0,-100.00,WNW,286,3.0,14.0,47,0.00,,,0.52,602.000000,,2013-08-02 20:02:00,
2013-08-02 16:10:00,80.0,55.0,-100.00,West,274,4.0,12.0,42,0.00,,,0.52,553.000000,,2013-08-02 20:10:00,
2013-08-02 16:43:00,80.0,55.0,-100.00,West,274,4.0,12.0,42,0.00,,,0.52,553.000000,,2013-08-02 20:43:00,
2013-08-02 16:52:00,80.0,55.0,-100.00,West,274,4.0,12.0,42,0.00,,,0.52,553.000000,,2013-08-02 20:52:00,
2013-08-02 17:03:00,80.0,55.0,-100.00,West,274,4.0,12.0,42,0.00,,,0.52,553.000000,,2013-08-02 21:03:00,
2013-08-02 17:10:00,80.0,53.0,-100.00,West,275,5.0,13.0,39,0.00,,,0.52,516.000000,,2013-08-02 21:10:00,
2013-08-02 17:43:00,80.0,53.0,-100.00,West,275,5.0,13.0,39,0.00,,,0.52,516.000000,,2013-08-02 21:43:00,
2013-08-02 17:53:00,80.0,53.0,-100.00,West,275,5.0,13.0,39,0.00,,,0.52,516.000000,,2013-08-02 21:53:00,
2013-08-02 18:03:00,80.0,53.0,-100.00,West,275,5.0,13.0,39,0.00,,,0.52,516.000000,,2013-08-02 22:03:00,
2013-08-02 18:10:00,78.0,52.0,-100.00,West,274,6.0,11.0,40,0.00,,,0.52,349.000000,,2013-08-02 22:10:00,
2013-08-02 18:43:00,78.0,52.0,-100.00,West,274,6.0,11.0,40,0.00,,,0.52,349.000000,,2013-08-02 22:43:00,
2013-08-02 18:52:00,78.0,52.0,-100.00,West,274,6.0,11.0,40,0.00,,,0.52,349.000000,,2013-08-02 22:52:00,
2013-08-02 19:02:00,78.0,52.0,-100.00,West,274,6.0,11.0,40,0.00,,,0.52,349.000000,,2013-08-02 23:02:00,
2013-08-02 19:10:00,72.0,49.0,-100.00,NNW,336,0.0,11.0,45,0.00,,,0.52,128.000000,,2013-08-02 23:10:00,
2013-08-02 19:32:00,72.0,49.0,-100.00,NNW,336,0.0,11.0,45,0.00,,,0.52,128.000000,,2013-08-02 23:32:00,
2013-08-02 19:43:00,72.0,49.0,-100.00,NNW,336,0.0,11.0,45,0.00,,,0.52,128.000000,,2013-08-02 23:43:00,
2013-08-02 19:53:00,72.0,49.0,-100.00,NNW,336,0.0,11.0,45,0.00,,,0.52,128.000000,,2013-08-02 23:53:00,
2013-08-02 20:02:00,72.0,49.0,-100.00,NNW,336,0.0,11.0,45,0.00,,,0.52,128.000000,,2013-08-03 00:02:00,
2013-08-02 20:10:00,63.0,57.0,-100.00,East,91,1.0,2.0,81,0.00,,,0.40,10.000000,,2013-08-03 00:10:00,
2013-08-02 20:43:00,63.0,57.0,-100.00,East,91,1.0,2.0,81,0.00,,,0.40,10.000000,,2013-08-03 00:43:00,
2013-08-02 20:52:00,63.0,57.0,-100.00,East,91,1.0,2.0,81,0.00,,,0.40,10.000000,,2013-08-03 00:52:00,
2013-08-02 21:03:00,63.0,57.0,-100.00,East,91,1.0,2.0,81,0.00,,,0.40,10.000000,,2013-08-03 01:03:00,
2013-08-02 21:10:00,60.0,56.0,-100.00,ESE,105,1.0,3.0,88,0.00,,,0.30,0.000000,,2013-08-03 01:10:00,
2013-08-02 21:33:00,60.0,56.0,-100.00,ESE,105,1.0,3.0,88,0.00,,,0.30,0.000000,,2013-08-03 01:33:00,
2013-08-02 21:43:00,60.0,56.0,-100.00,ESE,105,1.0,3.0,88,0.00,,,0.30,0.000000,,2013-08-03 01:43:00,
2013-08-02 21:53:00,60.0,56.0,-100.00,ESE,105,1.0,3.0,88,0.00,,,0.30,0.000000,,2013-08-03 01:53:00,
2013-08-02 22:02:00,60.0,56.0,-100.00,ESE,105,1.0,3.0,88,0.00,,,0.30,0.000000,,2013-08-03 02:02:00,
2013-08-02 22:10:00,60.0,57.0,-100.00,ENE,72,2.0,4.0,91,0.02,,,0.24,0.000000,,2013-08-03 02:10:00,
2013-08-02 22:43:00,60.0,57.0,-100.00,ENE,72,2.0,4.0,91,0.02,,,0.24,0.000000,,2013-08-03 02:43:00,
2013-08-02 22:53:00,60.0,57.0,-100.00,ENE,72,2.0,4.0,91,0.02,,,0.24,0.000000,,2013-08-03 02:53:00,
2013-08-02 23:03:00,60.0,57.0,-100.00,ENE,72,2.0,4.0,91,0.02,,,0.24,0.000000,,2013-08-03 03:03:00,
2013-08-02 23:10:00,59.0,58.0,-100.00,ESE,116,0.0,3.0,95,0.00,,,0.23,0.000000,,2013-08-03 03:10:00,
2013-08-02 23:43:00,59.0,58.0,-100.00,ESE,116,0.0,3.0,95,0.00,,,0.23,0.000000,,2013-08-03 03:43:00,
2013-08-02 23:53:00,59.0,58.0,-100.00,ESE,116,0.0,3.0,95,0.00,,,0.23,0.000000,,2013-08-03 03:53:00,